createdAt,value
2022-08-20T00:13:59.259Z,956.96
2022-08-20T00:29:01.079Z,956.72
2022-08-20T00:44:02.910Z,956.6
2022-08-20T00:59:04.724Z,956.54
2022-08-20T01:14:06.543Z,956.57
2022-08-20T01:29:08.437Z,956.61
2022-08-20T01:44:16.007Z,956.65
2022-08-20T01:59:20.267Z,956.84
2022-08-20T02:14:22.107Z,956.91
2022-08-20T02:29:23.941Z,957.01
2022-08-20T02:44:25.757Z,957.21
2022-08-20T02:59:27.608Z,957.56
2022-08-20T03:14:29.453Z,957.73
2022-08-20T03:29:31.278Z,957.92
2022-08-20T03:44:33.099Z,958.16
2022-08-20T03:59:34.945Z,958.3
2022-08-20T04:14:36.823Z,958.51
2022-08-20T04:29:38.672Z,958.54
2022-08-20T04:44:40.500Z,958.76
2022-08-20T04:59:42.318Z,958.76
2022-08-20T05:14:44.166Z,958.85
2022-08-20T05:29:46.084Z,958.9
2022-08-20T05:44:50.354Z,958.86
2022-08-20T05:59:52.243Z,958.79
2022-08-20T06:14:54.055Z,958.76
2022-08-20T06:29:55.863Z,958.79
2022-08-20T06:44:57.687Z,958.66
2022-08-20T06:59:59.576Z,958.79
2022-08-20T07:15:01.411Z,958.58
2022-08-20T07:30:03.226Z,958.68
2022-08-20T07:45:05.099Z,958.8
2022-08-20T08:00:06.977Z,958.86
2022-08-20T08:15:08.820Z,958.76
2022-08-20T08:30:10.691Z,958.58
2022-08-20T08:45:12.507Z,958.73
2022-08-20T09:00:14.302Z,958.92
2022-08-20T09:15:16.141Z,959.05
2022-08-20T09:30:18.526Z,959.19
2022-08-20T09:45:20.406Z,959.23
2022-08-20T10:00:22.249Z,959.05
2022-08-20T10:15:24.069Z,959.47
2022-08-20T10:30:25.886Z,959.52
2022-08-20T10:45:27.725Z,959.54
2022-08-20T11:00:29.573Z,959.73
2022-08-20T11:15:31.373Z,959.89
2022-08-20T11:30:33.154Z,959.83
2022-08-20T11:45:37.390Z,959.86
2022-08-20T12:00:39.719Z,959.77
2022-08-20T12:15:41.558Z,959.71
2022-08-20T12:30:43.382Z,959.82
2022-08-20T12:45:45.195Z,960
2022-08-20T13:00:50.577Z,960.11
2022-08-20T13:15:53.083Z,960.2
2022-08-20T13:30:54.942Z,960.01
2022-08-20T13:45:56.758Z,960.1
2022-08-20T14:00:58.617Z,960.25
2022-08-20T14:16:00.454Z,960.29
2022-08-20T14:31:02.257Z,960.37
2022-08-20T14:46:04.101Z,960.44
2022-08-20T15:01:05.997Z,960.41
2022-08-20T15:16:07.872Z,960.44
2022-08-20T15:31:09.691Z,960.65
2022-08-20T15:46:11.550Z,960.83
2022-08-20T16:01:24.536Z,961.1
2022-08-20T16:16:26.817Z,961.17
2022-08-20T16:31:28.646Z,961.12
2022-08-20T16:46:31.686Z,961.14
2022-08-20T17:01:35.855Z,961.34
2022-08-20T17:16:37.696Z,961.34
2022-08-20T17:31:39.523Z,961.33
2022-08-20T17:46:41.354Z,961.16
2022-08-20T18:01:43.229Z,961.1
2022-08-20T18:16:45.102Z,961.14
2022-08-20T18:31:46.918Z,961.07
2022-08-20T18:46:48.772Z,960.96
2022-08-20T19:01:50.641Z,960.91
2022-08-20T19:16:52.521Z,960.75
2022-08-20T19:31:54.369Z,960.63
2022-08-20T19:46:56.190Z,960.67
2022-08-20T20:01:58.101Z,960.78
2022-08-20T20:17:00.006Z,960.91
2022-08-20T20:32:01.830Z,960.94
2022-08-20T20:47:03.668Z,960.99
2022-08-20T21:02:05.658Z,960.81
2022-08-20T21:17:07.634Z,960.71
2022-08-20T21:32:09.502Z,960.62
2022-08-20T21:47:14.888Z,960.58
2022-08-20T22:02:16.711Z,960.5
2022-08-20T22:17:18.527Z,960.39
2022-08-20T22:32:20.370Z,960.22
2022-08-20T22:47:34.466Z,960.11
2022-08-20T23:02:36.304Z,959.93
2022-08-20T23:17:38.150Z,959.84
2022-08-20T23:32:39.987Z,959.76
2022-08-20T23:47:41.805Z,959.59
